createdAt,value
2022-10-31T00:01:15.159Z,91.87
2022-10-31T00:03:41.767Z,92.28
2022-10-31T00:06:08.346Z,92.44
2022-10-31T00:08:35.400Z,93.93
2022-10-31T00:11:02.196Z,92.91
2022-10-31T00:13:28.868Z,91.12
2022-10-31T00:15:55.557Z,94.21
2022-10-31T00:18:22.444Z,93.46
2022-10-31T00:20:49.173Z,93.20
2022-10-31T00:23:15.763Z,93.81
2022-10-31T00:25:42.386Z,93.64
2022-10-31T00:28:12.052Z,94.14
2022-10-31T00:30:38.715Z,94.28
2022-10-31T00:33:06.283Z,94.03
2022-10-31T00:35:33.358Z,94.94
2022-10-31T00:38:00.318Z,94.19
2022-10-31T00:40:26.978Z,95.51
2022-10-31T00:42:54.269Z,95.29
2022-10-31T00:45:21.075Z,94.72
2022-10-31T00:47:48.134Z,94.63
2022-10-31T00:50:14.800Z,94.73
2022-10-31T00:52:41.448Z,95.59
2022-10-31T00:55:08.352Z,95.00
2022-10-31T00:57:35.082Z,96.13
2022-10-31T01:00:04.201Z,95.44
2022-10-31T01:02:30.962Z,95.63
2022-10-31T01:04:57.704Z,95.32
2022-10-31T01:07:24.402Z,94.29
2022-10-31T01:09:51.012Z,95.58
2022-10-31T01:12:17.707Z,95.19
2022-10-31T01:14:46.021Z,96.92
2022-10-31T01:17:14.345Z,95.93
2022-10-31T01:19:41.295Z,96.64
2022-10-31T01:22:08.155Z,94.44
2022-10-31T01:24:34.847Z,96.58
2022-10-31T01:27:02.750Z,95.57
2022-10-31T01:29:32.673Z,97.58
2022-10-31T01:31:59.783Z,94.93
2022-10-31T01:34:26.886Z,94.59
2022-10-31T01:36:53.794Z,96.06
2022-10-31T01:39:21.960Z,95.70
2022-10-31T01:41:51.907Z,94.09
2022-10-31T01:44:18.463Z,93.68
2022-10-31T01:46:59.019Z,93.15
2022-10-31T01:49:37.377Z,94.76
2022-10-31T01:52:37.681Z,96.07
2022-10-31T01:55:13.089Z,96.08
2022-10-31T01:57:43.435Z,96.13
2022-10-31T02:00:11.133Z,96.33
2022-10-31T02:02:41.644Z,97.57
2022-10-31T02:05:13.642Z,98.71
2022-10-31T02:08:00.748Z,98.45
2022-10-31T02:10:32.610Z,96.33
2022-10-31T02:13:02.924Z,94.92
2022-10-31T02:15:32.846Z,96.53
2022-10-31T02:18:00.620Z,96.86
2022-10-31T02:20:33.490Z,97.40
2022-10-31T02:23:29.589Z,97.00
2022-10-31T02:25:59.607Z,96.74
2022-10-31T02:28:45.728Z,96.43
2022-10-31T02:31:18.320Z,97.16
2022-10-31T02:33:53.227Z,97.19
2022-10-31T02:36:54.031Z,98.07
2022-10-31T02:39:27.799Z,98.24
2022-10-31T02:42:00.480Z,97.10
2022-10-31T02:44:46.426Z,97.15
2022-10-31T02:47:17.616Z,97.35
2022-10-31T02:50:17.184Z,99.28
2022-10-31T02:52:43.816Z,98.00
2022-10-31T02:55:25.547Z,98.40
2022-10-31T02:58:02.145Z,98.09
2022-10-31T03:00:39.055Z,97.33
2022-10-31T03:03:24.580Z,99.18
2022-10-31T03:05:51.323Z,99.30
2022-10-31T03:08:50.326Z,98.88
2022-10-31T03:11:22.208Z,97.42
2022-10-31T03:13:58.358Z,97.98
2022-10-31T03:16:38.816Z,98.41
2022-10-31T03:19:12.639Z,99.39
2022-10-31T03:21:50.643Z,97.02
2022-10-31T03:24:17.567Z,97.37
2022-10-31T03:26:49.227Z,97.15
2022-10-31T03:29:20.516Z,99.67
2022-10-31T03:31:55.736Z,100.00
2022-10-31T03:34:23.744Z,99.14
2022-10-31T03:36:53.159Z,98.67
2022-10-31T03:39:22.916Z,100.00
2022-10-31T03:42:06.191Z,99.07
2022-10-31T03:44:35.630Z,98.90
2022-10-31T03:47:05.125Z,98.07
2022-10-31T03:49:33.826Z,99.19
2022-10-31T03:52:19.560Z,100.00
2022-10-31T03:54:52.552Z,99.73
2022-10-31T03:57:34.790Z,99.43
2022-10-31T04:00:08.346Z,99.77
2022-10-31T04:02:54.901Z,99.75
2022-10-31T04:05:22.449Z,99.31
2022-10-31T04:07:54.496Z,99.35
2022-10-31T04:10:23.240Z,99.79
2022-10-31T04:12:57.988Z,99.77
2022-10-31T04:15:33.342Z,99.50
2022-10-31T04:18:02.586Z,98.95
2022-10-31T04:20:49.628Z,99.59
2022-10-31T04:23:23.454Z,100.00
2022-10-31T04:25:51.265Z,98.99
2022-10-31T04:30:51.593Z,99.96
2022-10-31T04:33:18.710Z,100.00
2022-10-31T04:35:47.404Z,99.20
2022-10-31T04:38:14.173Z,98.22
2022-10-31T04:40:41.511Z,98.25
2022-10-31T04:43:28.046Z,97.86
2022-10-31T04:45:54.809Z,99.60
2022-10-31T04:48:21.443Z,100.00
2022-10-31T04:50:48.083Z,100.00
2022-10-31T04:53:15.164Z,99.07
2022-10-31T04:56:01.986Z,99.50
2022-10-31T04:58:36.827Z,100.00
2022-10-31T05:01:07.239Z,100.00
2022-10-31T05:03:34.206Z,98.87
2022-10-31T05:06:00.804Z,100.00
2022-10-31T05:08:27.955Z,100.00
2022-10-31T05:10:57.370Z,100.00
2022-10-31T05:13:27.396Z,100.00
2022-10-31T05:16:12.339Z,100.00
2022-10-31T05:18:44.635Z,100.00
2022-10-31T05:21:29.157Z,97.80
2022-10-31T05:24:00.034Z,97.40
2022-10-31T05:26:27.594Z,97.88
2022-10-31T05:28:55.240Z,98.51
2022-10-31T05:31:22.049Z,98.12
2022-10-31T05:33:50.363Z,99.04
2022-10-31T05:36:25.956Z,99.63
2022-10-31T05:38:57.212Z,99.38
2022-10-31T05:41:26.117Z,99.50
2022-10-31T05:44:01.032Z,99.21
2022-10-31T05:46:30.001Z,99.55
2022-10-31T05:49:34.886Z,100.00
2022-10-31T05:52:20.157Z,99.99
2022-10-31T05:54:54.378Z,98.95
2022-10-31T05:57:21.608Z,98.98
2022-10-31T05:59:52.418Z,100.00
2022-10-31T06:02:22.739Z,100.00
2022-10-31T06:05:16.143Z,99.95
2022-10-31T06:07:43.350Z,100.00
2022-10-31T06:10:10.161Z,99.35
2022-10-31T06:12:41.669Z,98.93
2022-10-31T06:15:31.247Z,100.00
2022-10-31T06:18:04.204Z,100.00
2022-10-31T06:20:35.020Z,99.83
2022-10-31T06:23:04.585Z,100.00
2022-10-31T06:25:33.857Z,99.58
2022-10-31T06:28:00.665Z,100.00
2022-10-31T06:30:36.601Z,98.51
2022-10-31T06:33:05.377Z,98.20
2022-10-31T06:35:35.933Z,98.74
2022-10-31T06:38:02.790Z,98.59
2022-10-31T06:40:41.711Z,98.75
2022-10-31T06:43:24.092Z,96.97
2022-10-31T06:46:03.810Z,98.13
2022-10-31T06:48:46.022Z,98.21
2022-10-31T06:51:35.690Z,95.49
2022-10-31T06:54:02.438Z,94.18
2022-10-31T06:56:29.165Z,90.86
2022-10-31T06:58:57.847Z,90.76
2022-10-31T07:01:43.379Z,90.49
2022-10-31T07:04:11.517Z,88.42
2022-10-31T07:06:38.538Z,88.93
2022-10-31T07:09:05.812Z,88.35
2022-10-31T07:11:32.470Z,87.83
2022-10-31T07:13:59.749Z,86.67
2022-10-31T07:16:26.997Z,85.04
2022-10-31T07:18:53.804Z,83.95
2022-10-31T07:21:20.897Z,83.82
2022-10-31T07:23:50.636Z,83.03
2022-10-31T07:26:43.370Z,82.31
2022-10-31T07:29:10.656Z,82.76
2022-10-31T07:31:37.380Z,82.01
2022-10-31T07:34:10.449Z,82.72
2022-10-31T07:36:55.260Z,82.50
2022-10-31T07:39:21.838Z,81.95
2022-10-31T07:41:48.408Z,81.50
2022-10-31T07:44:18.713Z,79.94
2022-10-31T07:47:05.260Z,78.79
2022-10-31T07:49:50.490Z,78.12
2022-10-31T07:52:35.945Z,78.12
2022-10-31T07:55:21.168Z,76.41
2022-10-31T07:57:57.150Z,75.35
2022-10-31T08:00:24.051Z,75.56
2022-10-31T08:02:58.451Z,75.06
2022-10-31T08:05:45.805Z,74.03
2022-10-31T08:08:47.514Z,74.33
2022-10-31T08:11:14.146Z,74.21
2022-10-31T08:13:41.441Z,73.39
2022-10-31T08:16:09.513Z,71.93
2022-10-31T08:18:43.511Z,71.50
2022-10-31T08:21:13.572Z,71.12
2022-10-31T08:23:40.169Z,70.33
2022-10-31T08:26:07.865Z,70.19
2022-10-31T08:28:34.534Z,69.68
2022-10-31T08:31:01.222Z,70.84
2022-10-31T08:33:40.087Z,69.07
2022-10-31T08:36:18.654Z,68.46
2022-10-31T08:39:12.232Z,69.70
2022-10-31T08:41:39.543Z,69.61
2022-10-31T08:44:10.646Z,68.50
2022-10-31T08:46:37.590Z,66.96
2022-10-31T08:49:04.324Z,67.96
2022-10-31T08:51:30.986Z,67.59
2022-10-31T08:53:57.804Z,66.80
2022-10-31T08:56:56.866Z,66.60
2022-10-31T08:59:44.839Z,66.68
2022-10-31T09:02:20.364Z,66.62
2022-10-31T09:04:49.134Z,66.73
2022-10-31T09:07:20.939Z,68.01
2022-10-31T09:09:48.234Z,66.52
2022-10-31T09:12:15.003Z,67.13
2022-10-31T09:15:08.324Z,67.68
2022-10-31T09:17:47.821Z,67.12
2022-10-31T09:20:34.555Z,67.66
2022-10-31T09:23:07.125Z,67.84
2022-10-31T09:25:36.243Z,67.79
2022-10-31T09:28:28.621Z,67.83
2022-10-31T09:30:59.364Z,67.17
2022-10-31T09:33:44.762Z,67.98
2022-10-31T09:36:31.291Z,68.12
2022-10-31T09:38:58.011Z,67.43
2022-10-31T09:41:42.974Z,67.22
2022-10-31T09:44:27.964Z,67.18
2022-10-31T09:47:28.078Z,66.82
2022-10-31T09:50:23.052Z,67.17
2022-10-31T09:52:55.830Z,67.80
2022-10-31T09:55:48.076Z,67.13
2022-10-31T09:58:21.070Z,66.85
2022-10-31T10:00:49.263Z,66.54
2022-10-31T10:03:34.151Z,66.40
2022-10-31T10:06:20.378Z,66.19
2022-10-31T10:09:05.860Z,66.13
2022-10-31T10:12:20.962Z,66.39
2022-10-31T10:15:15.186Z,65.69
2022-10-31T10:18:01.651Z,65.80
2022-10-31T10:21:00.325Z,66.46
2022-10-31T10:23:29.595Z,65.01
2022-10-31T10:26:11.205Z,64.73
2022-10-31T10:28:41.868Z,64.83
2022-10-31T10:31:14.175Z,66.02
2022-10-31T10:33:58.835Z,65.44
2022-10-31T10:36:43.768Z,65.67
2022-10-31T10:39:46.280Z,65.99
2022-10-31T10:42:34.883Z,65.61
2022-10-31T10:45:33.254Z,65.24
2022-10-31T10:48:11.275Z,66.24
2022-10-31T10:50:49.292Z,65.37
2022-10-31T10:54:10.431Z,64.61
2022-10-31T10:56:37.241Z,65.29
2022-10-31T10:59:04.754Z,63.93
2022-10-31T11:01:31.369Z,63.87
2022-10-31T11:03:58.041Z,64.08
2022-10-31T11:06:29.126Z,65.38
2022-10-31T11:08:55.730Z,64.18
2022-10-31T11:11:31.976Z,64.04
2022-10-31T11:14:13.189Z,64.91
2022-10-31T11:16:43.331Z,64.98
2022-10-31T11:19:18.745Z,64.19
2022-10-31T11:21:52.659Z,65.03
2022-10-31T11:24:27.376Z,64.02
2022-10-31T11:27:12.540Z,63.34
2022-10-31T11:29:39.103Z,63.69
2022-10-31T11:32:05.741Z,64.08
2022-10-31T11:34:46.843Z,63.60
2022-10-31T11:37:18.151Z,64.30
2022-10-31T11:39:54.440Z,63.30
2022-10-31T11:42:27.654Z,64.12
2022-10-31T11:44:55.951Z,65.13
2022-10-31T11:47:33.567Z,63.51
2022-10-31T11:50:09.733Z,62.49
2022-10-31T11:52:40.631Z,62.78
2022-10-31T11:55:13.209Z,62.60
2022-10-31T11:57:47.670Z,62.87
2022-10-31T12:03:39.621Z,63.56
2022-10-31T12:06:13.161Z,63.01
2022-10-31T12:08:42.155Z,63.60
2022-10-31T12:11:30.513Z,62.94
2022-10-31T12:14:08.565Z,62.80
2022-10-31T12:16:42.979Z,63.03
2022-10-31T12:19:35.927Z,62.82
2022-10-31T12:22:10.294Z,62.64
2022-10-31T12:24:38.013Z,63.08
2022-10-31T12:27:49.574Z,61.69
2022-10-31T12:30:41.830Z,62.19
2022-10-31T12:33:19.263Z,63.31
2022-10-31T12:36:04.788Z,61.60
2022-10-31T12:38:42.219Z,62.21
2022-10-31T12:41:24.131Z,61.14
2022-10-31T12:44:11.800Z,60.57
2022-10-31T12:46:57.461Z,60.98
2022-10-31T12:49:43.700Z,60.33
2022-10-31T12:52:28.471Z,60.09
2022-10-31T12:55:01.096Z,61.30
2022-10-31T12:57:52.215Z,60.47
2022-10-31T13:00:20.473Z,60.67
2022-10-31T13:02:47.028Z,60.51
2022-10-31T13:05:33.489Z,62.00
2022-10-31T13:08:09.541Z,61.71
2022-10-31T13:11:07.124Z,62.02
2022-10-31T13:13:45.298Z,61.59
2022-10-31T13:16:17.516Z,61.84
2022-10-31T13:18:54.655Z,61.99
2022-10-31T13:21:26.164Z,62.64
2022-10-31T13:23:53.319Z,63.05
2022-10-31T13:26:41.930Z,63.11
2022-10-31T13:29:32.691Z,64.18
2022-10-31T13:32:01.909Z,63.33
2022-10-31T13:34:33.735Z,63.46
2022-10-31T13:37:25.141Z,63.98
2022-10-31T13:40:25.242Z,64.12
2022-10-31T13:43:03.865Z,65.71
2022-10-31T13:45:30.643Z,65.73
2022-10-31T13:48:07.388Z,65.66
2022-10-31T13:50:34.289Z,65.18
2022-10-31T13:53:21.840Z,65.10
2022-10-31T13:55:51.420Z,65.08
2022-10-31T13:58:23.465Z,65.76
2022-10-31T14:01:11.776Z,65.52
2022-10-31T14:06:40.950Z,64.87
2022-10-31T14:09:20.699Z,63.16
2022-10-31T14:11:49.287Z,63.40
2022-10-31T14:14:16.946Z,62.76
2022-10-31T14:16:47.752Z,63.41
2022-10-31T14:19:21.814Z,63.08
2022-10-31T14:21:50.241Z,62.67
2022-10-31T14:24:31.982Z,63.92
2022-10-31T14:27:27.255Z,64.86
2022-10-31T14:29:53.938Z,65.54
2022-10-31T14:32:26.578Z,66.29
2022-10-31T14:34:56.387Z,65.47
2022-10-31T14:37:53.743Z,65.45
2022-10-31T14:40:23.093Z,64.30
2022-10-31T14:42:49.630Z,63.11
2022-10-31T14:45:23.175Z,62.54
2022-10-31T14:48:06.882Z,61.42
2022-10-31T14:50:54.166Z,61.93
2022-10-31T14:53:24.753Z,61.95
2022-10-31T14:55:54.921Z,61.88
2022-10-31T14:58:26.079Z,62.62
2022-10-31T15:00:57.377Z,63.47
2022-10-31T15:03:28.356Z,64.18
2022-10-31T15:05:59.251Z,63.64
2022-10-31T15:08:33.575Z,63.42
2022-10-31T15:11:04.562Z,64.73
2022-10-31T15:13:31.306Z,64.73
2022-10-31T15:15:58.150Z,65.35
2022-10-31T15:18:27.164Z,65.67
2022-10-31T15:20:56.144Z,64.38
2022-10-31T15:23:26.225Z,63.63
2022-10-31T15:26:00.802Z,63.69
2022-10-31T15:28:28.645Z,63.61
2022-10-31T15:30:59.757Z,63.48
2022-10-31T15:33:38.352Z,62.02
2022-10-31T15:36:06.921Z,62.76
2022-10-31T15:38:33.989Z,63.35
2022-10-31T15:41:04.445Z,65.02
2022-10-31T15:43:37.453Z,64.56
2022-10-31T15:46:07.794Z,65.09
2022-10-31T15:48:35.608Z,65.81
2022-10-31T15:51:03.518Z,67.11
2022-10-31T15:53:46.047Z,67.14
2022-10-31T15:56:21.290Z,68.57
2022-10-31T15:58:50.559Z,69.36
2022-10-31T16:01:35.401Z,68.61
2022-10-31T16:04:23.307Z,69.11
2022-10-31T16:07:23.678Z,70.20
2022-10-31T16:09:59.855Z,70.24
2022-10-31T16:12:38.618Z,68.71
2022-10-31T16:15:16.072Z,68.38
2022-10-31T16:17:46.314Z,67.52
2022-10-31T16:20:29.975Z,66.71
2022-10-31T16:22:58.712Z,66.99
2022-10-31T16:25:35.084Z,66.57
2022-10-31T16:28:18.251Z,67.60
2022-10-31T16:30:50.226Z,67.64
2022-10-31T16:33:37.305Z,67.97
2022-10-31T16:36:35.309Z,68.71
2022-10-31T16:39:03.824Z,69.69
2022-10-31T16:41:30.485Z,71.54
2022-10-31T16:43:57.122Z,71.91
2022-10-31T16:46:28.567Z,73.46
2022-10-31T16:48:55.495Z,74.41
2022-10-31T16:51:22.275Z,74.90
2022-10-31T16:53:52.063Z,74.74
2022-10-31T16:56:25.061Z,75.82
2022-10-31T16:58:51.706Z,77.36
2022-10-31T17:01:18.435Z,76.05
2022-10-31T17:03:45.175Z,76.96
2022-10-31T17:06:13.607Z,76.89
2022-10-31T17:08:40.505Z,78.12
2022-10-31T17:11:14.638Z,80.36
2022-10-31T17:13:41.401Z,79.87
2022-10-31T17:16:08.326Z,79.96
2022-10-31T17:18:34.951Z,81.44
2022-10-31T17:21:04.529Z,80.34
2022-10-31T17:23:33.267Z,80.53
2022-10-31T17:26:00.283Z,80.20
2022-10-31T17:28:27.123Z,79.33
2022-10-31T17:30:59.158Z,79.60
2022-10-31T17:33:25.902Z,81.23
2022-10-31T17:35:52.480Z,81.85
2022-10-31T17:38:19.225Z,80.46
2022-10-31T17:40:46.068Z,81.11
2022-10-31T17:43:12.842Z,84.03
2022-10-31T17:45:40.944Z,82.57
2022-10-31T17:48:10.748Z,83.20
2022-10-31T17:50:37.383Z,83.13
2022-10-31T17:53:04.362Z,85.45
2022-10-31T17:55:36.098Z,84.69
2022-10-31T17:58:04.872Z,86.93
2022-10-31T18:00:31.563Z,85.85
2022-10-31T18:02:58.354Z,84.33
2022-10-31T18:05:25.313Z,84.53
2022-10-31T18:07:51.987Z,86.10
2022-10-31T18:10:18.674Z,85.34
2022-10-31T18:12:45.576Z,84.81
2022-10-31T18:15:12.175Z,86.08
2022-10-31T18:17:42.017Z,91.12
2022-10-31T18:20:09.885Z,90.37
2022-10-31T18:22:36.890Z,88.52
2022-10-31T18:25:04.122Z,89.15
2022-10-31T18:27:30.714Z,88.86
2022-10-31T18:29:57.360Z,87.28
2022-10-31T18:32:24.022Z,86.58
2022-10-31T18:34:50.615Z,87.25
2022-10-31T18:37:17.287Z,87.02
2022-10-31T18:39:43.953Z,85.39
2022-10-31T18:42:10.505Z,85.48
2022-10-31T18:44:38.234Z,85.13
2022-10-31T18:47:04.909Z,84.36
2022-10-31T18:49:32.842Z,84.42
2022-10-31T18:52:00.039Z,83.87
2022-10-31T18:54:26.713Z,83.83
2022-10-31T18:56:53.424Z,83.79
2022-10-31T18:59:20.100Z,83.13
2022-10-31T19:01:46.940Z,83.03
2022-10-31T19:04:13.799Z,83.09
2022-10-31T19:06:40.471Z,83.13
2022-10-31T19:09:09.618Z,83.34
2022-10-31T19:11:37.774Z,83.25
2022-10-31T19:14:05.568Z,82.83
2022-10-31T19:16:32.156Z,81.68
2022-10-31T19:19:00.137Z,81.32
2022-10-31T19:21:27.520Z,81.74
2022-10-31T19:23:56.404Z,81.69
2022-10-31T19:26:24.804Z,81.62
2022-10-31T19:28:51.895Z,82.39
2022-10-31T19:31:19.041Z,81.76
2022-10-31T19:33:46.522Z,81.25
2022-10-31T19:36:15.434Z,82.05
2022-10-31T19:38:46.931Z,79.80
2022-10-31T19:41:19.506Z,77.65
2022-10-31T19:43:47.027Z,76.10
2022-10-31T19:46:22.218Z,76.51
2022-10-31T19:48:55.236Z,76.82
2022-10-31T19:51:22.411Z,74.75
2022-10-31T19:53:52.442Z,74.75
2022-10-31T19:56:24.697Z,74.93
2022-10-31T19:58:51.354Z,75.61
2022-10-31T20:01:23.708Z,74.73
2022-10-31T20:03:50.883Z,73.84
2022-10-31T20:06:32.890Z,73.10
2022-10-31T20:09:02.286Z,73.79
2022-10-31T20:11:29.953Z,73.02
2022-10-31T20:13:58.129Z,73.31
2022-10-31T20:16:26.172Z,72.22
2022-10-31T20:18:52.968Z,72.36
2022-10-31T20:21:25.049Z,72.40
2022-10-31T20:23:59.596Z,72.60
2022-10-31T20:26:26.963Z,72.80
2022-10-31T20:28:56.012Z,72.63
2022-10-31T20:31:25.207Z,72.46
2022-10-31T20:33:52.481Z,72.32
2022-10-31T20:36:20.997Z,72.01
2022-10-31T20:38:47.915Z,72.11
2022-10-31T20:41:15.393Z,71.96
2022-10-31T20:43:42.197Z,71.47
2022-10-31T20:46:18.017Z,71.19
2022-10-31T20:48:44.913Z,71.47
2022-10-31T20:53:42.813Z,71.38
2022-10-31T20:56:15.435Z,71.63
2022-10-31T20:58:43.450Z,71.27
2022-10-31T21:01:16.816Z,71.18
2022-10-31T21:03:44.526Z,70.51
2022-10-31T21:06:12.247Z,70.72
2022-10-31T21:08:39.913Z,70.54
2022-10-31T21:11:09.974Z,70.50
2022-10-31T21:13:40.695Z,69.80
2022-10-31T21:16:12.513Z,68.73
2022-10-31T21:18:41.242Z,68.82
2022-10-31T21:21:30.652Z,67.79
2022-10-31T21:24:05.183Z,68.21
2022-10-31T21:26:36.594Z,67.73
2022-10-31T21:29:04.917Z,67.97
2022-10-31T21:31:32.105Z,67.85
2022-10-31T21:33:58.791Z,67.92
2022-10-31T21:36:26.279Z,68.31
2022-10-31T21:38:54.384Z,68.61
2022-10-31T21:41:22.369Z,68.17
2022-10-31T21:43:51.294Z,67.73
2022-10-31T21:46:23.339Z,68.40
2022-10-31T21:48:50.122Z,68.04
2022-10-31T21:51:22.534Z,67.96
2022-10-31T21:54:08.460Z,67.43
2022-10-31T21:56:35.639Z,67.66
2022-10-31T21:59:02.731Z,68.12
2022-10-31T22:01:29.903Z,68.46
2022-10-31T22:03:57.596Z,68.84
2022-10-31T22:06:26.572Z,68.99
2022-10-31T22:08:54.448Z,68.82
2022-10-31T22:11:21.883Z,68.50
2022-10-31T22:13:49.905Z,68.74
2022-10-31T22:16:19.356Z,68.85
2022-10-31T22:18:46.930Z,69.33
2022-10-31T22:21:16.312Z,69.51
2022-10-31T22:23:43.601Z,69.69
2022-10-31T22:26:16.165Z,69.87
2022-10-31T22:28:47.984Z,69.54
2022-10-31T22:31:17.806Z,69.31
2022-10-31T22:33:45.678Z,68.81
2022-10-31T22:36:15.404Z,68.02
2022-10-31T22:38:43.019Z,68.87
2022-10-31T22:41:12.165Z,68.08
2022-10-31T22:43:39.354Z,68.14
2022-10-31T22:46:08.434Z,67.81
2022-10-31T22:48:39.039Z,68.24
2022-10-31T22:51:09.536Z,67.59
2022-10-31T22:53:37.695Z,67.73
2022-10-31T22:56:05.879Z,67.83
2022-10-31T22:58:34.303Z,67.96
2022-10-31T23:01:06.720Z,68.61
2022-10-31T23:03:33.602Z,68.17
2022-10-31T23:06:02.110Z,68.26
2022-10-31T23:08:30.152Z,68.19
2022-10-31T23:10:57.071Z,68.29
2022-10-31T23:13:42.560Z,68.20
2022-10-31T23:16:10.973Z,68.06
2022-10-31T23:18:49.683Z,67.48
2022-10-31T23:21:37.232Z,67.97
2022-10-31T23:24:04.248Z,68.64
2022-10-31T23:26:49.156Z,68.50
2022-10-31T23:29:15.754Z,69.21
2022-10-31T23:31:42.310Z,69.33
2022-10-31T23:34:09.073Z,69.35
2022-10-31T23:36:35.649Z,69.31
2022-10-31T23:39:02.304Z,69.89
2022-10-31T23:41:28.857Z,70.08
2022-10-31T23:43:55.575Z,70.53
2022-10-31T23:46:22.131Z,70.77
2022-10-31T23:48:49.541Z,70.64
2022-10-31T23:51:16.474Z,71.04
2022-10-31T23:53:46.366Z,71.10
2022-10-31T23:56:13.922Z,71.56
2022-10-31T23:58:41.075Z,71.62
